sensor_id;sensor_type;location;lat;lon;timestamp;pressure;altitude;pressure_sealevel;temperature;humidity
50125;BME280;36023;48.670;6.184;2023-05-24T00:00:43;99428.13;;;21.94;38.88
50125;BME280;36023;48.670;6.184;2023-05-24T00:03:11;99423.78;;;21.93;38.90
50125;BME280;36023;48.670;6.184;2023-05-24T00:05:39;99431.72;;;21.93;39.02
50125;BME280;36023;48.670;6.184;2023-05-24T00:08:06;99428.22;;;21.92;38.86
50125;BME280;36023;48.670;6.184;2023-05-24T00:10:31;99421.16;;;21.93;38.86
50125;BME280;36023;48.670;6.184;2023-05-24T00:12:57;99423.91;;;21.91;38.57
50125;BME280;36023;48.670;6.184;2023-05-24T00:15:23;99425.69;;;21.91;38.71
50125;BME280;36023;48.670;6.184;2023-05-24T00:17:48;99420.41;;;21.91;38.74
50125;BME280;36023;48.670;6.184;2023-05-24T00:20:14;99418.72;;;21.90;38.71
50125;BME280;36023;48.670;6.184;2023-05-24T00:22:40;99408.16;;;21.90;38.68
50125;BME280;36023;48.670;6.184;2023-05-24T00:25:06;99404.69;;;21.89;38.74
50125;BME280;36023;48.670;6.184;2023-05-24T00:27:32;99415.34;;;21.88;38.74
50125;BME280;36023;48.670;6.184;2023-05-24T00:29:59;99420.50;;;21.89;38.35
50125;BME280;36023;48.670;6.184;2023-05-24T00:32:28;99415.34;;;21.88;38.31
50125;BME280;36023;48.670;6.184;2023-05-24T00:34:55;99407.50;;;21.86;38.46
50125;BME280;36023;48.670;6.184;2023-05-24T00:37:21;99404.78;;;21.88;38.26
50125;BME280;36023;48.670;6.184;2023-05-24T00:39:49;99403.09;;;21.87;38.24
50125;BME280;36023;48.670;6.184;2023-05-24T00:42:17;99397.91;;;21.85;38.36
50125;BME280;36023;48.670;6.184;2023-05-24T00:44:44;99399.69;;;21.85;38.24
50125;BME280;36023;48.670;6.184;2023-05-24T00:47:09;99391.78;;;21.85;38.29
50125;BME280;36023;48.670;6.184;2023-05-24T00:49:35;99388.28;;;21.84;38.08
50125;BME280;36023;48.670;6.184;2023-05-24T00:52:01;99378.59;;;21.85;38.12
50125;BME280;36023;48.670;6.184;2023-05-24T00:54:28;99377.75;;;21.84;38.51
50125;BME280;36023;48.670;6.184;2023-05-24T00:56:54;99381.31;;;21.83;37.99
50125;BME280;36023;48.670;6.184;2023-05-24T00:59:25;99385.75;;;21.83;38.20
50125;BME280;36023;48.670;6.184;2023-05-24T01:01:51;99377.00;;;21.82;38.12
50125;BME280;36023;48.670;6.184;2023-05-24T01:04:17;99383.22;;;21.81;37.94
50125;BME280;36023;48.670;6.184;2023-05-24T01:07:07;99375.22;;;21.83;38.00
50125;BME280;36023;48.670;6.184;2023-05-24T01:12:29;99364.88;;;21.80;38.01
50125;BME280;36023;48.670;6.184;2023-05-24T01:15:09;99357.88;;;21.79;37.94
50125;BME280;36023;48.670;6.184;2023-05-24T01:17:58;99368.41;;;21.79;37.96
50125;BME280;36023;48.670;6.184;2023-05-24T01:20:31;99372.84;;;21.78;37.99
50125;BME280;36023;48.670;6.184;2023-05-24T01:29:01;99366.81;;;21.76;37.71
50125;BME280;36023;48.670;6.184;2023-05-24T01:31:30;99377.38;;;21.76;37.82
50125;BME280;36023;48.670;6.184;2023-05-24T01:33:55;99373.03;;;21.75;37.88
50125;BME280;36023;48.670;6.184;2023-05-24T01:36:21;99373.03;;;21.75;37.61
50125;BME280;36023;48.670;6.184;2023-05-24T01:38:47;99378.41;;;21.74;37.92
50125;BME280;36023;48.670;6.184;2023-05-24T01:41:26;99381.78;;;21.76;37.52
50125;BME280;36023;48.670;6.184;2023-05-24T01:46:36;99383.69;;;21.74;37.72
50125;BME280;36023;48.670;6.184;2023-05-24T01:49:22;99383.69;;;21.74;37.65
50125;BME280;36023;48.670;6.184;2023-05-24T01:52:01;99388.22;;;21.72;37.70
50125;BME280;36023;48.670;6.184;2023-05-24T01:54:29;99390.84;;;21.72;37.65
50125;BME280;36023;48.670;6.184;2023-05-24T01:56:57;99394.41;;;21.70;37.59
50125;BME280;36023;48.670;6.184;2023-05-24T01:59:26;99389.97;;;21.71;37.34
50125;BME280;36023;48.670;6.184;2023-05-24T02:01:54;99397.03;;;21.70;37.59
50125;BME280;36023;48.670;6.184;2023-05-24T02:04:20;99395.34;;;21.69;37.45
50125;BME280;36023;48.670;6.184;2023-05-24T02:06:46;99400.63;;;21.69;37.03
50125;BME280;36023;48.670;6.184;2023-05-24T02:09:13;99393.66;;;21.68;36.96
50125;BME280;36023;48.670;6.184;2023-05-24T02:11:39;99397.22;;;21.67;37.12
50125;BME280;36023;48.670;6.184;2023-05-24T02:14:05;99403.44;;;21.66;36.82
50125;BME280;36023;48.670;6.184;2023-05-24T02:16:30;99408.72;;;21.66;37.02
50125;BME280;36023;48.670;6.184;2023-05-24T02:18:56;99406.09;;;21.66;37.00
50125;BME280;36023;48.670;6.184;2023-05-24T02:21:22;99410.50;;;21.66;36.60
50125;BME280;36023;48.670;6.184;2023-05-24T02:23:48;99407.03;;;21.65;36.94
50125;BME280;36023;48.670;6.184;2023-05-24T02:26:14;99404.41;;;21.65;36.85
50125;BME280;36023;48.670;6.184;2023-05-24T02:28:43;99408.81;;;21.65;36.65
50125;BME280;36023;48.670;6.184;2023-05-24T02:31:09;99414.09;;;21.65;36.77
50125;BME280;36023;48.670;6.184;2023-05-24T02:33:35;99408.81;;;21.65;36.71
50125;BME280;36023;48.670;6.184;2023-05-24T02:36:01;99414.94;;;21.65;36.75
50125;BME280;36023;48.670;6.184;2023-05-24T02:38:28;99405.41;;;21.63;36.60
50125;BME280;36023;48.670;6.184;2023-05-24T02:40:55;99407.97;;;21.64;36.56
50125;BME280;36023;48.670;6.184;2023-05-24T02:43:24;99401.84;;;21.64;36.51
50125;BME280;36023;48.670;6.184;2023-05-24T02:45:51;99406.28;;;21.63;36.41
50125;BME280;36023;48.670;6.184;2023-05-24T02:48:16;99406.28;;;21.63;36.55
50125;BME280;36023;48.670;6.184;2023-05-24T02:50:42;99403.66;;;21.63;36.42
50125;BME280;36023;48.670;6.184;2023-05-24T02:53:08;99399.22;;;21.64;36.33
50125;BME280;36023;48.670;6.184;2023-05-24T02:55:33;99401.91;;;21.62;36.45
50125;BME280;36023;48.670;6.184;2023-05-24T02:57:59;99402.88;;;21.61;36.30
50125;BME280;36023;48.670;6.184;2023-05-24T03:00:26;99402.88;;;21.61;36.47
50125;BME280;36023;48.670;6.184;2023-05-24T03:02:53;99408.13;;;21.61;36.39
50125;BME280;36023;48.670;6.184;2023-05-24T03:05:20;99395.91;;;21.60;36.47
50125;BME280;36023;48.670;6.184;2023-05-24T03:07:45;99394.97;;;21.61;36.23
50125;BME280;36023;48.670;6.184;2023-05-24T03:10:12;99383.66;;;21.59;36.37
50125;BME280;36023;48.670;6.184;2023-05-24T03:12:38;99386.31;;;21.59;36.34
50125;BME280;36023;48.670;6.184;2023-05-24T03:15:06;99375.84;;;21.58;36.18
50125;BME280;36023;48.670;6.184;2023-05-24T03:17:31;99375.84;;;21.58;36.37
50125;BME280;36023;48.670;6.184;2023-05-24T03:19:58;99374.16;;;21.57;36.28
50125;BME280;36023;48.670;6.184;2023-05-24T03:22:28;99369.75;;;21.57;36.37
50125;BME280;36023;48.670;6.184;2023-05-24T03:24:54;99372.47;;;21.56;36.08
50125;BME280;36023;48.670;6.184;2023-05-24T03:27:20;99381.22;;;21.56;36.32
50125;BME280;36023;48.670;6.184;2023-05-24T03:29:49;99379.50;;;21.55;36.38
50125;BME280;36023;48.670;6.184;2023-05-24T03:32:16;99371.59;;;21.55;36.10
50125;BME280;36023;48.670;6.184;2023-05-24T03:37:09;99369.16;;;21.52;36.06
50125;BME280;36023;48.670;6.184;2023-05-24T03:39:36;99371.78;;;21.52;36.26
50125;BME280;36023;48.670;6.184;2023-05-24T03:42:29;99386.66;;;21.53;35.98
50125;BME280;36023;48.670;6.184;2023-05-24T03:44:56;99393.72;;;21.53;36.19
50125;BME280;36023;48.670;6.184;2023-05-24T03:47:23;99386.75;;;21.52;36.13
50125;BME280;36023;48.670;6.184;2023-05-24T03:49:48;99378.00;;;21.51;36.46
50125;BME280;36023;48.670;6.184;2023-05-24T03:52:14;99378.97;;;21.50;35.95
50125;BME280;36023;48.670;6.184;2023-05-24T03:54:41;99378.97;;;21.50;36.06
50125;BME280;36023;48.670;6.184;2023-05-24T03:57:07;99382.53;;;21.49;36.21
50125;BME280;36023;48.670;6.184;2023-05-24T03:59:36;99383.38;;;21.50;35.96
50125;BME280;36023;48.670;6.184;2023-05-24T04:02:01;99386.97;;;21.49;36.14
50125;BME280;36023;48.670;6.184;2023-05-24T04:04:28;99380.84;;;21.48;35.89
50125;BME280;36023;48.670;6.184;2023-05-24T04:06:54;99387.03;;;21.47;35.71
50125;BME280;36023;48.670;6.184;2023-05-24T04:09:21;99391.44;;;21.47;35.93
50125;BME280;36023;48.670;6.184;2023-05-24T04:11:48;99388.81;;;21.47;36.06
50125;BME280;36023;48.670;6.184;2023-05-24T04:14:13;99393.25;;;21.46;36.03
50125;BME280;36023;48.670;6.184;2023-05-24T04:16:39;99398.50;;;21.46;35.96
50125;BME280;36023;48.670;6.184;2023-05-24T04:19:06;99387.97;;;21.46;36.06
50125;BME280;36023;48.670;6.184;2023-05-24T04:21:32;99393.25;;;21.46;35.99
50125;BME280;36023;48.670;6.184;2023-05-24T04:23:59;99392.41;;;21.46;35.96
50125;BME280;36023;48.670;6.184;2023-05-24T04:26:26;99395.97;;;21.45;36.07
50125;BME280;36023;48.670;6.184;2023-05-24T04:28:52;99394.28;;;21.44;36.04
50125;BME280;36023;48.670;6.184;2023-05-24T04:31:19;99391.53;;;21.45;35.98
50125;BME280;36023;48.670;6.184;2023-05-24T04:33:47;99403.03;;;21.44;36.01
50125;BME280;36023;48.670;6.184;2023-05-24T04:36:15;99408.31;;;21.44;35.83
50125;BME280;36023;48.670;6.184;2023-05-24T04:38:42;99406.59;;;21.43;35.98
50125;BME280;36023;48.670;6.184;2023-05-24T04:41:10;99408.41;;;21.42;36.09
50125;BME280;36023;48.670;6.184;2023-05-24T04:43:37;99413.66;;;21.42;35.97
50125;BME280;36023;48.670;6.184;2023-05-24T04:46:03;99421.56;;;21.42;35.96
50125;BME280;36023;48.670;6.184;2023-05-24T04:48:30;99404.06;;;21.41;35.85
50125;BME280;36023;48.670;6.184;2023-05-24T04:50:56;99409.34;;;21.41;36.11
50125;BME280;36023;48.670;6.184;2023-05-24T04:53:23;99421.66;;;21.41;35.76
50125;BME280;36023;48.670;6.184;2023-05-24T04:55:49;99418.94;;;21.42;36.24
50125;BME280;36023;48.670;6.184;2023-05-24T04:58:16;99422.53;;;21.41;35.97
50125;BME280;36023;48.670;6.184;2023-05-24T05:00:43;99426.94;;;21.41;36.04
50125;BME280;36023;48.670;6.184;2023-05-24T05:03:10;99424.31;;;21.41;36.26
50125;BME280;36023;48.670;6.184;2023-05-24T05:05:36;99427.78;;;21.41;36.34
50125;BME280;36023;48.670;6.184;2023-05-24T05:08:02;99426.94;;;21.41;36.22
50125;BME280;36023;48.670;6.184;2023-05-24T05:10:28;99424.31;;;21.41;36.36
50125;BME280;36023;48.670;6.184;2023-05-24T05:12:55;99419.88;;;21.41;36.24
50125;BME280;36023;48.670;6.184;2023-05-24T05:15:22;99418.09;;;21.42;36.32
50125;BME280;36023;48.670;6.184;2023-05-24T05:17:49;99418.09;;;21.42;36.47
50125;BME280;36023;48.670;6.184;2023-05-24T05:20:15;99414.72;;;21.40;36.32
50125;BME280;36023;48.670;6.184;2023-05-24T05:22:46;99404.91;;;21.42;36.56
50125;BME280;36023;48.670;6.184;2023-05-24T05:25:12;99401.34;;;21.43;36.78
50125;BME280;36023;48.670;6.184;2023-05-24T05:27:39;99405.56;;;21.46;37.11
50125;BME280;36023;48.670;6.184;2023-05-24T05:30:06;99404.47;;;21.50;37.18
50125;BME280;36023;48.670;6.184;2023-05-24T05:32:33;99407.94;;;21.50;37.33
50125;BME280;36023;48.670;6.184;2023-05-24T05:34:59;99405.31;;;21.50;37.48
50125;BME280;36023;48.670;6.184;2023-05-24T05:37:25;99405.31;;;21.50;37.70
50125;BME280;36023;48.670;6.184;2023-05-24T05:39:50;99409.72;;;21.50;38.00
50125;BME280;36023;48.670;6.184;2023-05-24T05:42:17;99410.69;;;21.49;38.14
50125;BME280;36023;48.670;6.184;2023-05-24T05:44:42;99410.75;;;21.47;38.07
50125;BME280;36023;48.670;6.184;2023-05-24T05:47:09;99419.59;;;21.46;38.16
50125;BME280;36023;48.670;6.184;2023-05-24T05:49:35;99416.97;;;21.46;37.88
50125;BME280;36023;48.670;6.184;2023-05-24T05:52:02;99424.13;;;21.44;38.22
50125;BME280;36023;48.670;6.184;2023-05-24T05:54:27;99418.94;;;21.42;38.33
50125;BME280;36023;48.670;6.184;2023-05-24T05:56:54;99418.09;;;21.42;38.15
50125;BME280;36023;48.670;6.184;2023-05-24T05:59:20;99421.66;;;21.41;38.25
50125;BME280;36023;48.670;6.184;2023-05-24T06:01:46;99419.97;;;21.40;38.16
50125;BME280;36023;48.670;6.184;2023-05-24T06:04:14;99424.38;;;21.39;38.27
50125;BME280;36023;48.670;6.184;2023-05-24T06:06:40;99425.31;;;21.38;38.01
50125;BME280;36023;48.670;6.184;2023-05-24T06:09:06;99433.22;;;21.38;38.28
50125;BME280;36023;48.670;6.184;2023-05-24T06:11:34;99441.13;;;21.38;38.15
50125;BME280;36023;48.670;6.184;2023-05-24T06:13:59;99438.59;;;21.37;38.17
50125;BME280;36023;48.670;6.184;2023-05-24T06:16:25;99440.38;;;21.36;38.01
50125;BME280;36023;48.670;6.184;2023-05-24T06:18:51;99437.84;;;21.35;38.16
50125;BME280;36023;48.670;6.184;2023-05-24T06:21:17;99444.91;;;21.34;38.14
50125;BME280;36023;48.670;6.184;2023-05-24T06:23:43;99445.00;;;21.33;37.90
50125;BME280;36023;48.670;6.184;2023-05-24T06:26:09;99437.94;;;21.33;38.06
50125;BME280;36023;48.670;6.184;2023-05-24T06:28:35;99437.09;;;21.33;38.14
50125;BME280;36023;48.670;6.184;2023-05-24T06:31:04;99438.88;;;21.32;37.95
50125;BME280;36023;48.670;6.184;2023-05-24T06:33:32;99442.41;;;21.31;38.07
50125;BME280;36023;48.670;6.184;2023-05-24T06:35:57;99446.84;;;21.31;37.99
50125;BME280;36023;48.670;6.184;2023-05-24T06:38:24;99442.41;;;21.31;37.98
50125;BME280;36023;48.670;6.184;2023-05-24T06:40:50;99440.81;;;21.29;37.85
50125;BME280;36023;48.670;6.184;2023-05-24T06:43:16;99448.72;;;21.29;37.99
50125;BME280;36023;48.670;6.184;2023-05-24T06:45:42;99441.75;;;21.28;37.87
50125;BME280;36023;48.670;6.184;2023-05-24T06:48:09;99447.03;;;21.28;37.98
50125;BME280;36023;48.670;6.184;2023-05-24T06:50:35;99440.03;;;21.27;37.87
50125;BME280;36023;48.670;6.184;2023-05-24T06:53:01;99438.28;;;21.27;37.91
50125;BME280;36023;48.670;6.184;2023-05-24T06:55:28;99436.50;;;21.28;38.00
50125;BME280;36023;48.670;6.184;2023-05-24T06:57:54;99435.66;;;21.27;38.01
50125;BME280;36023;48.670;6.184;2023-05-24T07:00:20;99432.13;;;21.27;37.91
50125;BME280;36023;48.670;6.184;2023-05-24T07:02:46;99439.19;;;21.26;38.21
50125;BME280;36023;48.670;6.184;2023-05-24T07:05:12;99440.97;;;21.26;38.01
50125;BME280;36023;48.670;6.184;2023-05-24T07:07:39;99444.47;;;21.26;38.05
50125;BME280;36023;48.670;6.184;2023-05-24T07:10:07;99448.03;;;21.25;37.93
50125;BME280;36023;48.670;6.184;2023-05-24T07:12:33;99453.31;;;21.25;38.17
50125;BME280;36023;48.670;6.184;2023-05-24T07:14:58;99452.47;;;21.25;38.12
50125;BME280;36023;48.670;6.184;2023-05-24T07:17:25;99451.56;;;21.24;38.13
50125;BME280;36023;48.670;6.184;2023-05-24T07:19:53;99456.94;;;21.23;38.25
50125;BME280;36023;48.670;6.184;2023-05-24T07:22:20;99459.56;;;21.23;38.07
50125;BME280;36023;48.670;6.184;2023-05-24T07:24:47;99448.19;;;21.22;38.16
50125;BME280;36023;48.670;6.184;2023-05-24T07:27:12;99456.19;;;21.21;38.48
50125;BME280;36023;48.670;6.184;2023-05-24T07:29:40;99460.59;;;21.20;38.20
50125;BME280;36023;48.670;6.184;2023-05-24T07:32:06;99459.75;;;21.20;38.04
50125;BME280;36023;48.670;6.184;2023-05-24T07:34:32;99464.09;;;21.21;38.22
50125;BME280;36023;48.670;6.184;2023-05-24T07:37:00;99465.03;;;21.20;38.46
50125;BME280;36023;48.670;6.184;2023-05-24T07:39:31;99468.59;;;21.19;38.21
50125;BME280;36023;48.670;6.184;2023-05-24T07:41:56;99471.25;;;21.19;38.23
50125;BME280;36023;48.670;6.184;2023-05-24T07:44:23;99471.25;;;21.19;38.28
50125;BME280;36023;48.670;6.184;2023-05-24T07:46:49;99473.88;;;21.19;38.37
50125;BME280;36023;48.670;6.184;2023-05-24T07:49:16;99473.03;;;21.18;38.18
50125;BME280;36023;48.670;6.184;2023-05-24T07:51:42;99474.81;;;21.18;38.34
50125;BME280;36023;48.670;6.184;2023-05-24T07:54:08;99473.97;;;21.17;38.28
50125;BME280;36023;48.670;6.184;2023-05-24T07:56:34;99468.69;;;21.17;38.21
50125;BME280;36023;48.670;6.184;2023-05-24T07:59:00;99470.47;;;21.17;38.24
50125;BME280;36023;48.670;6.184;2023-05-24T08:01:32;99468.75;;;21.15;38.50
50125;BME280;36023;48.670;6.184;2023-05-24T08:04:02;99472.19;;;21.18;38.56
50125;BME280;36023;48.670;6.184;2023-05-24T08:06:29;99475.72;;;21.17;38.76
50125;BME280;36023;48.670;6.184;2023-05-24T08:08:58;99472.25;;;21.16;38.54
50125;BME280;36023;48.670;6.184;2023-05-24T08:11:23;99473.09;;;21.17;38.43
50125;BME280;36023;48.670;6.184;2023-05-24T08:13:49;99481.00;;;21.17;38.46
50125;BME280;36023;48.670;6.184;2023-05-24T08:16:14;99474.88;;;21.16;38.77
50125;BME280;36023;48.670;6.184;2023-05-24T08:18:40;99472.25;;;21.16;38.55
50125;BME280;36023;48.670;6.184;2023-05-24T08:21:06;99482.78;;;21.16;38.74
50125;BME280;36023;48.670;6.184;2023-05-24T08:23:33;99480.16;;;21.16;38.43
50125;BME280;36023;48.670;6.184;2023-05-24T08:25:59;99485.34;;;21.18;38.74
50125;BME280;36023;48.670;6.184;2023-05-24T08:28:25;99483.63;;;21.17;38.83
50125;BME280;36023;48.670;6.184;2023-05-24T08:30:53;99481.00;;;21.17;38.71
50125;BME280;36023;48.670;6.184;2023-05-24T08:33:19;99482.78;;;21.16;38.92
50125;BME280;36023;48.670;6.184;2023-05-24T08:35:48;99483.63;;;21.17;38.99
50125;BME280;36023;48.670;6.184;2023-05-24T08:38:15;99483.63;;;21.17;39.04
50125;BME280;36023;48.670;6.184;2023-05-24T08:40:41;99482.78;;;21.16;39.12
50125;BME280;36023;48.670;6.184;2023-05-24T08:43:09;99477.44;;;21.18;39.03
50125;BME280;36023;48.670;6.184;2023-05-24T08:45:37;99481.69;;;21.20;39.40
50125;BME280;36023;48.670;6.184;2023-05-24T08:48:05;99483.19;;;21.24;39.54
50125;BME280;36023;48.670;6.184;2023-05-24T08:50:32;99485.16;;;21.21;39.26
50125;BME280;36023;48.670;6.184;2023-05-24T08:52:59;99475.66;;;21.18;39.34
50125;BME280;36023;48.670;6.184;2023-05-24T08:55:28;99490.63;;;21.18;39.35
50125;BME280;36023;48.670;6.184;2023-05-24T08:57:54;99484.50;;;21.17;39.42
50125;BME280;36023;48.670;6.184;2023-05-24T09:00:21;99488.00;;;21.18;39.54
50125;BME280;36023;48.670;6.184;2023-05-24T09:02:48;99484.50;;;21.17;39.49
50125;BME280;36023;48.670;6.184;2023-05-24T09:05:15;99487.13;;;21.17;39.55
50125;BME280;36023;48.670;6.184;2023-05-24T09:07:43;99485.34;;;21.18;39.50
50125;BME280;36023;48.670;6.184;2023-05-24T09:10:10;99480.94;;;21.18;39.60
50125;BME280;36023;48.670;6.184;2023-05-24T09:12:37;99488.00;;;21.18;39.72
50125;BME280;36023;48.670;6.184;2023-05-24T09:15:04;99487.13;;;21.17;39.72
50125;BME280;36023;48.670;6.184;2023-05-24T09:17:30;99487.19;;;21.15;39.80
50125;BME280;36023;48.670;6.184;2023-05-24T09:19:57;99488.91;;;21.17;39.71
50125;BME280;36023;48.670;6.184;2023-05-24T09:22:27;99485.41;;;21.16;39.72
50125;BME280;36023;48.670;6.184;2023-05-24T09:25:01;99490.69;;;21.16;39.93
50125;BME280;36023;48.670;6.184;2023-05-24T09:27:27;99491.53;;;21.17;39.90
50125;BME280;36023;48.670;6.184;2023-05-24T09:29:55;99497.72;;;21.15;40.00
50125;BME280;36023;48.670;6.184;2023-05-24T09:32:22;99495.94;;;21.16;39.89
50125;BME280;36023;48.670;6.184;2023-05-24T09:34:51;99490.78;;;21.14;39.88
50125;BME280;36023;48.670;6.184;2023-05-24T09:37:20;99488.13;;;21.14;39.96
50125;BME280;36023;48.670;6.184;2023-05-24T09:39:48;99493.41;;;21.14;40.05
50125;BME280;36023;48.670;6.184;2023-05-24T09:42:17;99482.03;;;21.14;40.13
50125;BME280;36023;48.670;6.184;2023-05-24T09:45:06;99472.34;;;21.14;40.15
50125;BME280;36023;48.670;6.184;2023-05-24T09:47:38;99477.59;;;21.14;40.19
50125;BME280;36023;48.670;6.184;2023-05-24T09:50:10;99481.19;;;21.13;39.96
50125;BME280;36023;48.670;6.184;2023-05-24T09:52:37;99474.97;;;21.14;40.18
50125;BME280;36023;48.670;6.184;2023-05-24T09:55:18;99478.53;;;21.13;40.22
50125;BME280;36023;48.670;6.184;2023-05-24T09:58:00;99471.41;;;21.15;40.14
50125;BME280;36023;48.670;6.184;2023-05-24T10:00:27;99468.00;;;21.13;40.29
50125;BME280;36023;48.670;6.184;2023-05-24T10:03:05;99464.53;;;21.13;40.27
50125;BME280;36023;48.670;6.184;2023-05-24T10:05:32;99466.22;;;21.14;40.32
50125;BME280;36023;48.670;6.184;2023-05-24T10:07:58;99465.38;;;21.13;40.35
50125;BME280;36023;48.670;6.184;2023-05-24T10:10:27;99469.78;;;21.13;40.44
50125;BME280;36023;48.670;6.184;2023-05-24T10:12:55;99468.84;;;21.14;40.42
50125;BME280;36023;48.670;6.184;2023-05-24T10:15:21;99457.38;;;21.15;40.45
50125;BME280;36023;48.670;6.184;2023-05-24T10:17:47;99463.59;;;21.14;40.29
50125;BME280;36023;48.670;6.184;2023-05-24T10:20:13;99451.28;;;21.14;40.24
50125;BME280;36023;48.670;6.184;2023-05-24T10:22:46;99460.88;;;21.15;40.39
50125;BME280;36023;48.670;6.184;2023-05-24T10:25:23;99462.66;;;21.15;40.53
50125;BME280;36023;48.670;6.184;2023-05-24T10:27:56;99466.13;;;21.15;40.59
50125;BME280;36023;48.670;6.184;2023-05-24T10:30:30;99464.44;;;21.14;40.70
50125;BME280;36023;48.670;6.184;2023-05-24T10:32:58;99460.88;;;21.15;40.79
50125;BME280;36023;48.670;6.184;2023-05-24T10:35:24;99460.00;;;21.15;40.71
50125;BME280;36023;48.670;6.184;2023-05-24T10:37:52;99460.00;;;21.15;40.54
50125;BME280;36023;48.670;6.184;2023-05-24T10:40:20;99465.28;;;21.15;40.61
50125;BME280;36023;48.670;6.184;2023-05-24T10:42:47;99472.25;;;21.16;40.67
50125;BME280;36023;48.670;6.184;2023-05-24T10:47:48;99459.16;;;21.14;40.73
50125;BME280;36023;48.670;6.184;2023-05-24T10:50:19;99454.66;;;21.17;40.76
50125;BME280;36023;48.670;6.184;2023-05-24T10:52:45;99456.44;;;21.16;40.89
50125;BME280;36023;48.670;6.184;2023-05-24T10:55:12;99452.00;;;21.17;40.67
50125;BME280;36023;48.670;6.184;2023-05-24T10:57:38;99452.00;;;21.17;40.71
50125;BME280;36023;48.670;6.184;2023-05-24T11:03:17;99452.00;;;21.17;40.76
50125;BME280;36023;48.670;6.184;2023-05-24T11:08:30;99442.38;;;21.17;40.64
50125;BME280;36023;48.670;6.184;2023-05-24T11:11:13;99450.25;;;21.17;40.71
50125;BME280;36023;48.670;6.184;2023-05-24T11:13:41;99440.56;;;21.18;40.83
50125;BME280;36023;48.670;6.184;2023-05-24T11:16:07;99435.31;;;21.18;40.79
50125;BME280;36023;48.670;6.184;2023-05-24T11:18:33;99432.66;;;21.18;40.81
50125;BME280;36023;48.670;6.184;2023-05-24T11:21:07;99437.00;;;21.19;40.91
50125;BME280;36023;48.670;6.184;2023-05-24T11:23:34;99442.25;;;21.19;40.76
50125;BME280;36023;48.670;6.184;2023-05-24T11:26:00;99437.00;;;21.19;40.79
50125;BME280;36023;48.670;6.184;2023-05-24T11:28:28;99434.38;;;21.19;40.98
50125;BME280;36023;48.670;6.184;2023-05-24T11:30:54;99438.69;;;21.20;40.82
50125;BME280;36023;48.670;6.184;2023-05-24T11:33:21;99429.94;;;21.19;40.80
50125;BME280;36023;48.670;6.184;2023-05-24T11:35:52;99426.38;;;21.20;40.87
50125;BME280;36023;48.670;6.184;2023-05-24T11:38:18;99423.72;;;21.20;40.84
50125;BME280;36023;48.670;6.184;2023-05-24T11:40:48;99428.16;;;21.20;41.14
50125;BME280;36023;48.670;6.184;2023-05-24T11:43:21;99412.34;;;21.20;40.93
50125;BME280;36023;48.670;6.184;2023-05-24T11:45:50;99414.03;;;21.21;40.96
50125;BME280;36023;48.670;6.184;2023-05-24T11:48:18;99407.94;;;21.20;40.99
50125;BME280;36023;48.670;6.184;2023-05-24T11:50:47;99408.78;;;21.21;41.08
50125;BME280;36023;48.670;6.184;2023-05-24T11:53:18;99409.53;;;21.23;41.07
50125;BME280;36023;48.670;6.184;2023-05-24T11:55:45;99399.09;;;21.21;40.94
50125;BME280;36023;48.670;6.184;2023-05-24T12:00:46;99399.00;;;21.23;40.95
50125;BME280;36023;48.670;6.184;2023-05-24T12:03:12;99399.84;;;21.23;40.82
50125;BME280;36023;48.670;6.184;2023-05-24T12:05:37;99400.69;;;21.24;40.71
50125;BME280;36023;48.670;6.184;2023-05-24T12:08:06;99396.25;;;21.24;40.88
50125;BME280;36023;48.670;6.184;2023-05-24T12:10:33;99388.34;;;21.24;40.79
50125;BME280;36023;48.670;6.184;2023-05-24T12:13:01;99391.00;;;21.24;40.78
50125;BME280;36023;48.670;6.184;2023-05-24T12:15:27;99385.72;;;21.24;40.72
50125;BME280;36023;48.670;6.184;2023-05-24T12:17:53;99388.34;;;21.24;40.72
50125;BME280;36023;48.670;6.184;2023-05-24T12:20:19;99388.28;;;21.26;40.72
50125;BME280;36023;48.670;6.184;2023-05-24T12:22:52;99377.75;;;21.26;40.78
50125;BME280;36023;48.670;6.184;2023-05-24T12:25:18;99363.75;;;21.25;40.59
50125;BME280;36023;48.670;6.184;2023-05-24T12:27:55;99368.91;;;21.27;40.67
50125;BME280;36023;48.670;6.184;2023-05-24T12:30:23;99376.81;;;21.27;40.76
50125;BME280;36023;48.670;6.184;2023-05-24T12:32:49;99369.78;;;21.27;40.72
50125;BME280;36023;48.670;6.184;2023-05-24T12:35:22;99370.63;;;21.28;40.81
50125;BME280;36023;48.670;6.184;2023-05-24T12:37:48;99372.41;;;21.27;40.59
50125;BME280;36023;48.670;6.184;2023-05-24T12:40:20;99368.84;;;21.28;40.65
50125;BME280;36023;48.670;6.184;2023-05-24T12:42:50;99374.97;;;21.29;40.49
50125;BME280;36023;48.670;6.184;2023-05-24T12:45:19;99369.69;;;21.29;40.40
50125;BME280;36023;48.670;6.184;2023-05-24T12:47:51;99365.25;;;21.29;40.52
50125;BME280;36023;48.670;6.184;2023-05-24T12:50:18;99373.06;;;21.31;40.58
50125;BME280;36023;48.670;6.184;2023-05-24T12:52:44;99371.38;;;21.30;40.65
50125;BME280;36023;48.670;6.184;2023-05-24T12:55:14;99370.53;;;21.29;40.58
50125;BME280;36023;48.670;6.184;2023-05-24T12:57:42;99368.75;;;21.30;40.44
50125;BME280;36023;48.670;6.184;2023-05-24T13:00:10;99364.31;;;21.30;40.27
50125;BME280;36023;48.670;6.184;2023-05-24T13:02:38;99365.16;;;21.31;40.42
50125;BME280;36023;48.670;6.184;2023-05-24T13:05:06;99367.81;;;21.31;40.40
50125;BME280;36023;48.670;6.184;2023-05-24T13:07:32;99364.22;;;21.32;40.24
50125;BME280;36023;48.670;6.184;2023-05-24T13:09:57;99366.00;;;21.31;40.22
50125;BME280;36023;48.670;6.184;2023-05-24T13:12:24;99361.59;;;21.32;40.11
50125;BME280;36023;48.670;6.184;2023-05-24T13:14:51;99358.03;;;21.33;40.17
50125;BME280;36023;48.670;6.184;2023-05-24T13:17:17;99349.28;;;21.32;40.38
50125;BME280;36023;48.670;6.184;2023-05-24T13:19:43;99349.28;;;21.32;40.32
50125;BME280;36023;48.670;6.184;2023-05-24T13:22:08;99351.00;;;21.33;40.26
50125;BME280;36023;48.670;6.184;2023-05-24T13:24:34;99346.56;;;21.34;40.08
50125;BME280;36023;48.670;6.184;2023-05-24T13:27:01;99338.75;;;21.32;40.09